Time;durP1;ratioP1;P1;durP2;ratioP2;P2;SDS_P1;SDS_P2;PMS_P1;PMS_P2;Temp;Humidity;BMP_temperature;BMP_pressure;BME280_temperature;BME280_humidity;BME280_pressure;Samples;Min_cycle;Max_cycle;Signal;HPM_P1;HPM_P2
2023/04/06 00:00:35;;;;;;;22.90;9.27;;;;;;;;;;5007010;28;20021;-69
2023/04/06 00:03:00;;;;;;;20.90;9.45;;;;;;;;;;5012865;28;20053;-69
2023/04/06 00:05:27;;;;;;;20.88;9.15;;;;;;;;;;5008405;28;20133;-69
2023/04/06 00:07:54;;;;;;;19.67;8.63;;;;;;;;;;5009207;28;20634;-69
2023/04/06 00:10:19;;;;;;;23.75;9.98;;;;;;;;;;5006153;28;20042;-69
2023/04/06 00:12:45;;;;;;;22.33;9.15;;;;;;;;;;5008202;28;20033;-69
2023/04/06 00:15:10;;;;;;;24.45;9.63;;;;;;;;;;5007499;28;20575;-69
2023/04/06 00:17:36;;;;;;;23.45;9.13;;;;;;;;;;5009098;28;20030;-69
2023/04/06 00:20:01;;;;;;;22.48;9.27;;;;;;;;;;5006016;28;20047;-69
2023/04/06 00:22:27;;;;;;;21.23;9.57;;;;;;;;;;5007451;28;20026;-69
2023/04/06 00:24:52;;;;;;;20.08;9.82;;;;;;;;;;5000964;28;20026;-69
2023/04/06 00:27:17;;;;;;;22.98;9.48;;;;;;;;;;5003417;28;20057;-69
2023/04/06 00:29:44;;;;;;;22.83;10.05;;;;;;;;;;5005995;28;20034;-69
2023/04/06 00:32:09;;;;;;;20.95;9.95;;;;;;;;;;4993868;28;20042;-69
2023/04/06 00:34:35;;;;;;;25.48;10.95;;;;;;;;;;5004133;28;20065;-69
2023/04/06 00:37:00;;;;;;;26.42;9.60;;;;;;;;;;5008667;28;20520;-69
2023/04/06 00:39:25;;;;;;;23.00;10.32;;;;;;;;;;5009941;28;20041;-69
2023/04/06 00:41:52;;;;;;;25.85;10.25;;;;;;;;;;5010198;28;20034;-68
2023/04/06 00:44:18;;;;;;;23.30;10.07;;;;;;;;;;5009046;28;20105;-69
2023/04/06 00:46:44;;;;;;;25.70;10.52;;;;;;;;;;5001508;28;20046;-69
2023/04/06 00:49:10;;;;;;;22.65;9.75;;;;;;;;;;5000823;28;20573;-69
2023/04/06 00:51:35;;;;;;;20.13;9.60;;;;;;;;;;5006718;28;20034;-69
2023/04/06 00:54:01;;;;;;;26.20;10.25;;;;;;;;;;4998170;28;20068;-69
2023/04/06 00:56:26;;;;;;;24.30;9.65;;;;;;;;;;5008447;28;20066;-69
2023/04/06 00:58:52;;;;;;;24.67;10.27;;;;;;;;;;5006718;28;20088;-70
2023/04/06 01:01:17;;;;;;;24.42;11.27;;;;;;;;;;4993624;28;20038;-69
2023/04/06 01:03:44;;;;;;;22.80;9.23;;;;;;;;;;4992138;28;20022;-70
2023/04/06 01:06:10;;;;;;;26.50;9.95;;;;;;;;;;4999690;28;20040;-70
2023/04/06 01:08:36;;;;;;;27.50;11.60;;;;;;;;;;4988077;28;20035;-70
2023/04/06 01:11:01;;;;;;;27.10;11.25;;;;;;;;;;4987395;28;20053;-70
2023/04/06 01:13:27;;;;;;;21.92;10.18;;;;;;;;;;4988163;28;20038;-70
2023/04/06 01:15:52;;;;;;;24.67;9.88;;;;;;;;;;5001587;28;20520;-69
2023/04/06 01:18:18;;;;;;;23.85;10.40;;;;;;;;;;5011183;28;20031;-69
2023/04/06 01:20:43;;;;;;;25.38;10.70;;;;;;;;;;5007540;28;20026;-69
2023/04/06 01:23:09;;;;;;;25.55;10.95;;;;;;;;;;5001795;28;20026;-69
2023/04/06 01:25:34;;;;;;;23.42;10.70;;;;;;;;;;5007466;28;20042;-69
2023/04/06 01:27:59;;;;;;;27.30;11.60;;;;;;;;;;5011526;28;20029;-70
2023/04/06 01:30:25;;;;;;;22.95;10.05;;;;;;;;;;5001589;28;20472;-69
2023/04/06 01:32:50;;;;;;;23.33;10.43;;;;;;;;;;5004285;28;20124;-69
2023/04/06 01:35:18;;;;;;;27.42;11.50;;;;;;;;;;5007344;28;20129;-70
2023/04/06 01:37:44;;;;;;;21.77;9.65;;;;;;;;;;5005476;28;20461;-70
2023/04/06 01:40:11;;;;;;;26.10;11.38;;;;;;;;;;4998427;28;20030;-70
2023/04/06 01:42:36;;;;;;;27.90;9.80;;;;;;;;;;5013002;28;20036;-69
2023/04/06 01:45:02;;;;;;;24.05;10.60;;;;;;;;;;5007728;28;20416;-69
2023/04/06 01:47:27;;;;;;;21.92;9.50;;;;;;;;;;5005678;28;20469;-69
2023/04/06 01:49:53;;;;;;;25.35;10.98;;;;;;;;;;5004455;28;20030;-70
2023/04/06 01:52:18;;;;;;;22.08;10.55;;;;;;;;;;4989603;28;20157;-69
2023/04/06 01:54:43;;;;;;;26.52;10.07;;;;;;;;;;4997287;28;20022;-70
2023/04/06 01:57:10;;;;;;;22.85;9.73;;;;;;;;;;5003711;28;20034;-70
2023/04/06 01:59:36;;;;;;;24.02;11.25;;;;;;;;;;5004812;28;20033;-69
2023/04/06 02:02:01;;;;;;;25.95;10.20;;;;;;;;;;4993073;28;20559;-69
2023/04/06 02:04:26;;;;;;;21.25;9.98;;;;;;;;;;5005016;28;20116;-70
2023/04/06 02:06:52;;;;;;;23.30;10.30;;;;;;;;;;5005467;28;20018;-70
2023/04/06 02:09:17;;;;;;;22.75;10.25;;;;;;;;;;5007099;28;20014;-70
2023/04/06 02:11:43;;;;;;;27.02;11.38;;;;;;;;;;4990720;28;20053;-70
2023/04/06 02:14:08;;;;;;;25.60;10.77;;;;;;;;;;5004298;28;20061;-69
2023/04/06 02:16:33;;;;;;;26.83;10.27;;;;;;;;;;5006802;28;20037;-70
2023/04/06 02:18:59;;;;;;;29.25;9.73;;;;;;;;;;5006694;28;20013;-70
2023/04/06 02:21:24;;;;;;;25.88;10.30;;;;;;;;;;5005442;28;20014;-69
2023/04/06 02:23:49;;;;;;;22.77;9.63;;;;;;;;;;4998854;28;20756;-69
2023/04/06 02:26:15;;;;;;;26.75;10.00;;;;;;;;;;4998669;28;20026;-70
2023/04/06 02:28:40;;;;;;;24.60;10.38;;;;;;;;;;5017350;28;20053;-69
2023/04/06 02:31:07;;;;;;;21.90;9.73;;;;;;;;;;5003726;28;20468;-69
2023/04/06 02:33:32;;;;;;;23.42;9.75;;;;;;;;;;5006242;28;20037;-69
2023/04/06 02:35:57;;;;;;;21.65;9.82;;;;;;;;;;5005144;28;20539;-70
2023/04/06 02:38:23;;;;;;;24.25;10.65;;;;;;;;;;5006144;28;20991;-70
2023/04/06 02:40:48;;;;;;;24.15;9.88;;;;;;;;;;5007955;28;20034;-70
2023/04/06 02:43:13;;;;;;;21.15;9.77;;;;;;;;;;5006061;28;20034;-70
2023/04/06 02:45:39;;;;;;;28.52;10.88;;;;;;;;;;5001813;28;20033;-70
2023/04/06 02:48:04;;;;;;;25.17;10.43;;;;;;;;;;4997123;28;20033;-69
2023/04/06 02:50:30;;;;;;;25.88;10.30;;;;;;;;;;5006574;28;20036;-70
2023/04/06 02:52:55;;;;;;;19.17;9.57;;;;;;;;;;5006194;28;20105;-70
2023/04/06 02:55:20;;;;;;;23.45;9.75;;;;;;;;;;4994812;28;20026;-70
2023/04/06 02:57:46;;;;;;;25.40;10.88;;;;;;;;;;4986664;28;20021;-70
2023/04/06 03:00:12;;;;;;;24.70;9.95;;;;;;;;;;4994843;28;20132;-70
2023/04/06 03:02:38;;;;;;;21.73;9.23;;;;;;;;;;4998926;28;20120;-69
2023/04/06 03:05:03;;;;;;;23.88;9.82;;;;;;;;;;4993432;28;20126;-69
2023/04/06 03:07:29;;;;;;;23.25;10.18;;;;;;;;;;5000630;28;20041;-69
2023/04/06 03:09:54;;;;;;;20.63;9.32;;;;;;;;;;5005135;28;20050;-69
2023/04/06 03:12:20;;;;;;;25.00;10.00;;;;;;;;;;5007164;28;20132;-70
2023/04/06 03:14:46;;;;;;;27.88;10.25;;;;;;;;;;5003897;28;20030;-70
2023/04/06 03:17:11;;;;;;;22.10;10.07;;;;;;;;;;5002427;28;20038;-70
2023/04/06 03:19:36;;;;;;;24.17;9.95;;;;;;;;;;5004791;28;20030;-70
2023/04/06 03:22:02;;;;;;;27.42;10.38;;;;;;;;;;5005027;28;20026;-70
2023/04/06 03:24:27;;;;;;;23.15;9.55;;;;;;;;;;5004735;28;20525;-69
2023/04/06 03:26:53;;;;;;;24.42;10.25;;;;;;;;;;5001052;28;20030;-69
2023/04/06 03:29:18;;;;;;;22.65;9.85;;;;;;;;;;5008045;28;20491;-70
2023/04/06 03:31:44;;;;;;;23.85;10.07;;;;;;;;;;5001988;28;20034;-69
2023/04/06 03:34:09;;;;;;;22.85;9.23;;;;;;;;;;5001325;28;20037;-69
2023/04/06 03:36:35;;;;;;;24.95;9.75;;;;;;;;;;5006013;28;20014;-69
2023/04/06 03:39:00;;;;;;;22.48;9.85;;;;;;;;;;5000135;28;20044;-69
2023/04/06 03:41:26;;;;;;;24.50;10.43;;;;;;;;;;5004224;28;20092;-69
2023/04/06 03:43:52;;;;;;;25.80;10.02;;;;;;;;;;4991947;28;20037;-70
2023/04/06 03:46:17;;;;;;;23.83;9.05;;;;;;;;;;4995739;28;20049;-69
2023/04/06 03:48:42;;;;;;;24.05;9.70;;;;;;;;;;5003991;28;20053;-70
2023/04/06 03:51:08;;;;;;;25.10;9.48;;;;;;;;;;5004964;28;20547;-70
2023/04/06 03:53:33;;;;;;;21.17;9.57;;;;;;;;;;5004513;28;20061;-70
2023/04/06 03:55:59;;;;;;;23.65;10.32;;;;;;;;;;5002840;28;20456;-69
2023/04/06 03:58:24;;;;;;;22.13;9.82;;;;;;;;;;5005265;28;20046;-70
2023/04/06 04:00:49;;;;;;;26.60;9.45;;;;;;;;;;5005677;28;20024;-70
2023/04/06 04:03:15;;;;;;;21.02;9.23;;;;;;;;;;5004777;28;20030;-70
2023/04/06 04:05:40;;;;;;;23.35;10.48;;;;;;;;;;5004757;28;20141;-70
2023/04/06 04:08:07;;;;;;;24.15;10.05;;;;;;;;;;5000581;28;20046;-69
2023/04/06 04:10:32;;;;;;;24.10;10.50;;;;;;;;;;4996331;28;20049;-69
2023/04/06 04:12:57;;;;;;;23.30;10.32;;;;;;;;;;5002678;28;20205;-69
2023/04/06 04:15:23;;;;;;;23.27;10.23;;;;;;;;;;4997877;28;20053;-69
2023/04/06 04:17:49;;;;;;;21.80;10.13;;;;;;;;;;5003173;28;20038;-69
2023/04/06 04:20:16;;;;;;;21.30;9.38;;;;;;;;;;5006659;28;20037;-69
2023/04/06 04:22:41;;;;;;;24.55;9.65;;;;;;;;;;5003966;28;20038;-69
2023/04/06 04:25:07;;;;;;;22.98;9.85;;;;;;;;;;5008210;28;20018;-70
2023/04/06 04:27:32;;;;;;;19.35;9.48;;;;;;;;;;5000125;28;20038;-70
2023/04/06 04:29:58;;;;;;;23.95;10.15;;;;;;;;;;5013179;28;20103;-70
2023/04/06 04:32:27;;;;;;;21.13;9.82;;;;;;;;;;5007425;28;20061;-70
2023/04/06 04:34:52;;;;;;;26.10;9.93;;;;;;;;;;5008557;28;20041;-70
2023/04/06 04:37:18;;;;;;;24.02;10.05;;;;;;;;;;5004512;28;20029;-71
2023/04/06 04:39:44;;;;;;;20.23;9.02;;;;;;;;;;5007055;28;20030;-70
2023/04/06 04:42:10;;;;;;;21.25;8.93;;;;;;;;;;5007113;28;20117;-70
2023/04/06 04:44:35;;;;;;;19.15;9.55;;;;;;;;;;4990079;28;20194;-70
2023/04/06 04:47:00;;;;;;;32.05;10.77;;;;;;;;;;4989087;28;20030;-70
2023/04/06 04:49:26;;;;;;;22.08;9.40;;;;;;;;;;4989538;28;20510;-70
2023/04/06 04:51:52;;;;;;;20.10;8.90;;;;;;;;;;5003175;28;20064;-70
2023/04/06 04:54:18;;;;;;;19.75;9.55;;;;;;;;;;5020590;28;20436;-70
2023/04/06 04:56:44;;;;;;;21.58;9.52;;;;;;;;;;5029466;28;20038;-70
2023/04/06 04:59:10;;;;;;;28.80;10.73;;;;;;;;;;5024627;28;20034;-70
2023/04/06 05:01:35;;;;;;;25.17;9.70;;;;;;;;;;5009630;28;20456;-70
2023/04/06 05:04:01;;;;;;;23.55;10.68;;;;;;;;;;5008342;28;20022;-70
2023/04/06 05:06:26;;;;;;;24.48;10.32;;;;;;;;;;5010059;28;20555;-70
2023/04/06 05:08:51;;;;;;;26.40;9.68;;;;;;;;;;5006481;28;20038;-70
2023/04/06 05:11:17;;;;;;;24.45;10.23;;;;;;;;;;5007105;28;20080;-70
2023/04/06 05:13:42;;;;;;;21.95;9.55;;;;;;;;;;5007480;28;20108;-70
2023/04/06 05:16:07;;;;;;;27.00;10.57;;;;;;;;;;5016366;28;20026;-70
2023/04/06 05:18:33;;;;;;;24.25;10.52;;;;;;;;;;5004950;28;20117;-70
2023/04/06 05:20:58;;;;;;;28.27;10.70;;;;;;;;;;5002785;28;20464;-70
2023/04/06 05:23:24;;;;;;;23.10;10.20;;;;;;;;;;5004900;28;20416;-70
2023/04/06 05:25:49;;;;;;;24.02;10.05;;;;;;;;;;5003689;28;20065;-70
2023/04/06 05:28:15;;;;;;;20.70;9.88;;;;;;;;;;5015749;28;20692;-70
2023/04/06 05:30:42;;;;;;;25.85;10.35;;;;;;;;;;5004646;28;20083;-70
2023/04/06 05:33:08;;;;;;;25.30;10.65;;;;;;;;;;4990211;28;20520;-70
2023/04/06 05:35:33;;;;;;;26.60;10.70;;;;;;;;;;5000606;28;20029;-70
2023/04/06 05:37:59;;;;;;;23.38;10.75;;;;;;;;;;5002278;28;20507;-70
2023/04/06 05:40:25;;;;;;;21.65;10.15;;;;;;;;;;5026394;28;20029;-70
2023/04/06 05:42:51;;;;;;;27.48;10.60;;;;;;;;;;5028146;28;20668;-70
2023/04/06 05:45:18;;;;;;;25.42;10.27;;;;;;;;;;5027953;28;20021;-70
2023/04/06 05:47:44;;;;;;;23.17;9.77;;;;;;;;;;4998540;28;20064;-70
2023/04/06 05:50:10;;;;;;;22.80;9.45;;;;;;;;;;4998566;28;20116;-70
2023/04/06 05:52:36;;;;;;;25.55;10.10;;;;;;;;;;5006147;28;20034;-70
2023/04/06 05:55:03;;;;;;;24.90;9.73;;;;;;;;;;5007751;28;20037;-70
2023/04/06 05:57:28;;;;;;;26.48;10.40;;;;;;;;;;5008060;28;20534;-70
2023/04/06 05:59:55;;;;;;;25.02;9.85;;;;;;;;;;5005051;28;20022;-70
2023/04/06 06:02:21;;;;;;;29.67;10.70;;;;;;;;;;4998811;28;20072;-70
2023/04/06 06:04:46;;;;;;;26.65;10.10;;;;;;;;;;5005658;28;20041;-70
2023/04/06 06:07:11;;;;;;;26.88;9.68;;;;;;;;;;5005423;28;20037;-70
2023/04/06 06:09:37;;;;;;;23.63;9.57;;;;;;;;;;4994352;28;20803;-70
2023/04/06 06:12:02;;;;;;;29.65;10.65;;;;;;;;;;5007748;28;20034;-70
2023/04/06 06:14:31;;;;;;;24.90;10.18;;;;;;;;;;5009028;28;20049;-70
2023/04/06 06:16:56;;;;;;;21.77;9.48;;;;;;;;;;5009277;28;20517;-70
2023/04/06 06:19:21;;;;;;;23.50;9.85;;;;;;;;;;5005342;28;20041;-70
2023/04/06 06:21:47;;;;;;;25.48;9.88;;;;;;;;;;5000492;28;20034;-70
2023/04/06 06:24:12;;;;;;;23.88;10.02;;;;;;;;;;5000153;28;20018;-70
2023/04/06 06:26:39;;;;;;;21.90;9.57;;;;;;;;;;5003737;28;20527;-70
2023/04/06 06:29:05;;;;;;;17.90;8.85;;;;;;;;;;5002112;28;20034;-70
2023/04/06 06:31:31;;;;;;;20.90;9.00;;;;;;;;;;4996935;28;20042;-70
2023/04/06 06:33:56;;;;;;;21.83;8.57;;;;;;;;;;5004690;28;20414;-70
2023/04/06 06:36:22;;;;;;;25.20;9.98;;;;;;;;;;5003657;28;20456;-70
2023/04/06 06:38:47;;;;;;;24.15;8.98;;;;;;;;;;5007385;28;20419;-70
2023/04/06 06:41:13;;;;;;;19.88;7.72;;;;;;;;;;5007074;28;20204;-70
2023/04/06 06:43:38;;;;;;;26.77;9.15;;;;;;;;;;5007057;28;20030;-70
2023/04/06 06:46:04;;;;;;;26.60;9.60;;;;;;;;;;5006834;28;20065;-70
2023/04/06 06:48:30;;;;;;;22.95;10.10;;;;;;;;;;5007169;28;20018;-70
2023/04/06 06:50:56;;;;;;;25.48;9.75;;;;;;;;;;5006446;28;20505;-70
2023/04/06 06:53:22;;;;;;;29.45;10.55;;;;;;;;;;5005921;28;20034;-69
2023/04/06 06:55:50;;;;;;;22.15;9.50;;;;;;;;;;5007227;28;20034;-69
2023/04/06 06:58:18;;;;;;;20.17;8.43;;;;;;;;;;5005587;28;20049;-69
2023/04/06 07:00:44;;;;;;;18.50;8.25;;;;;;;;;;5003951;28;20033;-69
2023/04/06 07:03:09;;;;;;;32.38;8.95;;;;;;;;;;5008050;28;20009;-69
2023/04/06 07:05:35;;;;;;;20.10;8.73;;;;;;;;;;4998153;28;20417;-69
2023/04/06 07:08:00;;;;;;;22.75;8.88;;;;;;;;;;5000462;28;20046;-69
2023/04/06 07:10:26;;;;;;;21.40;8.55;;;;;;;;;;5004201;28;20050;-69
2023/04/06 07:12:51;;;;;;;20.27;8.35;;;;;;;;;;5001033;28;20053;-69
2023/04/06 07:15:17;;;;;;;18.08;8.70;;;;;;;;;;5012283;28;20208;-69
2023/04/06 07:17:45;;;;;;;25.77;10.25;;;;;;;;;;5006786;28;20022;-69
2023/04/06 07:20:11;;;;;;;19.98;8.88;;;;;;;;;;4995562;28;20030;-69
2023/04/06 07:22:36;;;;;;;23.90;10.15;;;;;;;;;;4986952;28;20030;-69
2023/04/06 07:25:01;;;;;;;25.40;8.95;;;;;;;;;;4996430;28;20049;-69
2023/04/06 07:27:27;;;;;;;20.92;9.20;;;;;;;;;;5002915;28;20109;-69
2023/04/06 07:29:52;;;;;;;20.02;8.30;;;;;;;;;;5014828;28;20029;-69
2023/04/06 07:32:17;;;;;;;19.80;9.48;;;;;;;;;;5006080;28;20180;-69
2023/04/06 07:34:44;;;;;;;25.10;10.00;;;;;;;;;;5006756;28;20034;-69
2023/04/06 07:37:10;;;;;;;22.92;8.98;;;;;;;;;;5007395;28;20040;-69
2023/04/06 07:39:35;;;;;;;19.17;8.95;;;;;;;;;;5014262;28;20061;-69
2023/04/06 07:42:01;;;;;;;19.08;7.75;;;;;;;;;;5010681;28;20014;-70
2023/04/06 07:44:26;;;;;;;22.58;9.45;;;;;;;;;;5005387;28;20121;-69
2023/04/06 07:46:51;;;;;;;16.45;6.75;;;;;;;;;;5006183;28;20038;-69
2023/04/06 07:49:17;;;;;;;17.42;7.32;;;;;;;;;;5005919;28;20181;-69
2023/04/06 07:51:42;;;;;;;17.98;7.05;;;;;;;;;;5006479;28;20088;-69
2023/04/06 07:54:08;;;;;;;14.40;6.22;;;;;;;;;;5003909;28;20494;-69
2023/04/06 07:56:33;;;;;;;19.05;8.35;;;;;;;;;;5009477;28;20521;-69
2023/04/06 07:58:59;;;;;;;12.65;5.60;;;;;;;;;;5007712;28;20037;-69
2023/04/06 08:01:24;;;;;;;15.90;7.13;;;;;;;;;;5007482;28;20061;-69
2023/04/06 08:03:50;;;;;;;21.05;6.32;;;;;;;;;;5008888;28;20036;-68
2023/04/06 08:06:16;;;;;;;15.63;7.15;;;;;;;;;;5008164;28;20152;-68
2023/04/06 08:08:42;;;;;;;16.10;6.85;;;;;;;;;;5005995;28;20030;-68
2023/04/06 08:11:07;;;;;;;20.90;7.45;;;;;;;;;;5006644;28;20057;-69
2023/04/06 08:13:33;;;;;;;15.07;6.93;;;;;;;;;;5009868;28;20042;-68
2023/04/06 08:15:59;;;;;;;15.77;5.82;;;;;;;;;;5011363;28;20025;-68
2023/04/06 08:18:25;;;;;;;14.02;6.50;;;;;;;;;;4996840;28;20033;-72
2023/04/06 08:20:51;;;;;;;17.35;5.90;;;;;;;;;;5006076;28;20018;-70
2023/04/06 08:23:16;;;;;;;14.77;7.18;;;;;;;;;;5001658;28;20038;-70
2023/04/06 08:25:42;;;;;;;14.48;5.53;;;;;;;;;;5002833;28;20548;-69
2023/04/06 08:28:08;;;;;;;9.65;3.92;;;;;;;;;;5003086;28;20116;-69
2023/04/06 08:30:34;;;;;;;11.50;3.65;;;;;;;;;;5009344;28;20029;-68
2023/04/06 08:32:59;;;;;;;16.63;6.47;;;;;;;;;;5008596;28;20036;-68
2023/04/06 08:35:26;;;;;;;13.35;5.18;;;;;;;;;;5007696;28;20421;-69
2023/04/06 08:37:51;;;;;;;13.27;5.18;;;;;;;;;;5002821;28;20034;-68
2023/04/06 08:40:17;;;;;;;15.35;6.07;;;;;;;;;;5010240;28;20033;-68
2023/04/06 08:42:47;;;;;;;15.20;6.03;;;;;;;;;;5006215;28;20026;-68
2023/04/06 08:45:15;;;;;;;12.13;5.40;;;;;;;;;;5008490;28;20507;-68
2023/04/06 08:47:40;;;;;;;12.77;4.85;;;;;;;;;;5006411;28;20390;-68
2023/04/06 08:50:08;;;;;;;11.40;5.88;;;;;;;;;;5007508;28;20088;-68
2023/04/06 08:52:33;;;;;;;16.13;6.18;;;;;;;;;;5003137;28;20095;-68
2023/04/06 08:54:59;;;;;;;8.85;4.50;;;;;;;;;;5007576;28;20034;-69
2023/04/06 08:57:26;;;;;;;7.13;3.00;;;;;;;;;;4997950;28;20042;-68
2023/04/06 08:59:52;;;;;;;8.77;3.85;;;;;;;;;;5006489;28;20532;-68
2023/04/06 09:02:19;;;;;;;11.20;4.88;;;;;;;;;;5010147;28;20033;-68
2023/04/06 09:04:53;;;;;;;8.45;4.07;;;;;;;;;;5014558;28;20037;-68
2023/04/06 09:07:19;;;;;;;10.77;4.20;;;;;;;;;;5004495;28;20404;-69
2023/04/06 09:09:47;;;;;;;10.68;5.18;;;;;;;;;;5006069;28;20036;-68
2023/04/06 09:12:27;;;;;;;14.95;5.30;;;;;;;;;;5004447;28;20053;-69
2023/04/06 09:14:53;;;;;;;14.77;5.50;;;;;;;;;;4998728;28;20050;-69
2023/04/06 09:17:26;;;;;;;10.85;5.07;;;;;;;;;;5004848;28;20034;-69
2023/04/06 09:19:52;;;;;;;9.75;4.90;;;;;;;;;;5006672;28;20128;-69
2023/04/06 09:22:18;;;;;;;19.23;4.53;;;;;;;;;;5002598;28;20172;-68
2023/04/06 09:24:45;;;;;;;11.15;5.18;;;;;;;;;;4999749;28;20116;-69
2023/04/06 09:27:11;;;;;;;10.35;4.65;;;;;;;;;;5006349;28;20098;-68
2023/04/06 09:29:36;;;;;;;9.25;4.00;;;;;;;;;;5006380;28;20050;-68
2023/04/06 09:32:06;;;;;;;5.88;3.30;;;;;;;;;;5004610;28;20398;-68
2023/04/06 09:34:32;;;;;;;9.30;4.05;;;;;;;;;;4999197;28;20084;-69
2023/04/06 09:36:58;;;;;;;15.18;4.57;;;;;;;;;;5005570;28;20037;-69
2023/04/06 09:39:24;;;;;;;7.35;3.45;;;;;;;;;;5002561;28;20041;-69
2023/04/06 09:41:54;;;;;;;7.82;4.15;;;;;;;;;;5001961;28;20045;-71
2023/04/06 09:44:20;;;;;;;14.75;6.30;;;;;;;;;;5001887;28;20030;-70
2023/04/06 09:46:46;;;;;;;11.38;5.15;;;;;;;;;;5004315;28;20044;-70
2023/04/06 09:49:12;;;;;;;7.15;3.60;;;;;;;;;;5003815;28;20408;-70
2023/04/06 09:51:49;;;;;;;9.50;4.80;;;;;;;;;;5004755;28;20222;-70
2023/04/06 09:54:22;;;;;;;9.57;4.90;;;;;;;;;;5006128;28;20042;-70
2023/04/06 09:56:51;;;;;;;9.65;5.32;;;;;;;;;;5005605;28;20113;-69
2023/04/06 09:59:43;;;;;;;5.55;3.65;;;;;;;;;;4997400;28;20046;-69
2023/04/06 10:02:21;;;;;;;8.63;4.22;;;;;;;;;;4974160;28;20041;-69
2023/04/06 10:05:10;;;;;;;10.88;4.78;;;;;;;;;;5003390;28;20037;-69
2023/04/06 10:07:36;;;;;;;12.27;5.90;;;;;;;;;;5002029;28;20037;-69
2023/04/06 10:10:02;;;;;;;7.50;2.80;;;;;;;;;;4994628;28;20054;-68
2023/04/06 10:12:28;;;;;;;10.85;4.18;;;;;;;;;;4991065;28;20141;-69
2023/04/06 10:14:54;;;;;;;15.23;6.03;;;;;;;;;;4992233;28;20062;-69
2023/04/06 10:17:20;;;;;;;13.40;6.53;;;;;;;;;;4992659;28;20045;-69
2023/04/06 10:20:09;;;;;;;12.85;4.88;;;;;;;;;;5005398;28;20080;-69
2023/04/06 10:22:50;;;;;;;11.80;5.55;;;;;;;;;;5005994;28;20117;-68
2023/04/06 10:25:16;;;;;;;13.50;5.75;;;;;;;;;;5000220;28;20026;-68
2023/04/06 10:27:41;;;;;;;10.85;5.30;;;;;;;;;;5009910;28;20044;-69
2023/04/06 10:30:07;;;;;;;19.17;7.13;;;;;;;;;;4999399;28;20038;-69
2023/04/06 10:33:23;;;;;;;17.27;7.65;;;;;;;;;;5002919;28;20038;-69
2023/04/06 10:36:14;;;;;;;9.88;4.90;;;;;;;;;;4964266;28;20053;-69
2023/04/06 10:38:41;;;;;;;13.98;5.90;;;;;;;;;;4982061;28;20037;-69
2023/04/06 10:41:08;;;;;;;11.77;4.70;;;;;;;;;;4992964;28;20116;-70
2023/04/06 10:43:37;;;;;;;13.43;6.30;;;;;;;;;;5004201;28;20687;-69
2023/04/06 10:46:05;;;;;;;17.83;7.93;;;;;;;;;;5003920;28;20033;-69
2023/04/06 10:48:41;;;;;;;15.93;7.07;;;;;;;;;;4999283;28;20458;-68
2023/04/06 10:51:14;;;;;;;15.75;6.47;;;;;;;;;;5002091;28;20038;-69
2023/04/06 10:53:45;;;;;;;14.02;6.75;;;;;;;;;;5002135;28;20713;-69
2023/04/06 10:56:12;;;;;;;13.95;6.47;;;;;;;;;;5007166;28;20038;-68
2023/04/06 10:58:44;;;;;;;16.77;7.53;;;;;;;;;;5004989;28;20065;-68
2023/04/06 11:01:10;;;;;;;13.02;6.07;;;;;;;;;;5004846;28;20022;-69
2023/04/06 11:03:46;;;;;;;15.68;7.20;;;;;;;;;;5002241;28;20524;-69
2023/04/06 11:06:18;;;;;;;15.77;7.78;;;;;;;;;;4995832;28;20437;-69
2023/04/06 11:08:44;;;;;;;16.40;6.90;;;;;;;;;;5003771;28;20046;-69
2023/04/06 11:11:09;;;;;;;16.15;6.55;;;;;;;;;;4994244;28;20448;-69
2023/04/06 11:13:45;;;;;;;12.02;4.85;;;;;;;;;;4998485;28;20052;-69
2023/04/06 11:16:22;;;;;;;15.80;7.68;;;;;;;;;;4994395;28;20104;-69
2023/04/06 11:18:50;;;;;;;13.90;6.13;;;;;;;;;;4998894;28;20505;-69
2023/04/06 11:21:16;;;;;;;12.30;6.20;;;;;;;;;;4998777;28;20038;-69
2023/04/06 11:23:42;;;;;;;11.82;5.70;;;;;;;;;;5003945;28;20536;-69
2023/04/06 11:26:14;;;;;;;12.52;5.50;;;;;;;;;;5003604;28;20046;-69
2023/04/06 11:28:42;;;;;;;14.40;4.72;;;;;;;;;;5004369;28;20042;-69
2023/04/06 11:31:10;;;;;;;17.92;8.00;;;;;;;;;;5003802;28;20520;-69
2023/04/06 11:33:38;;;;;;;8.80;4.65;;;;;;;;;;5003580;28;20401;-69
2023/04/06 11:36:04;;;;;;;18.27;6.40;;;;;;;;;;5002268;28;20612;-69
2023/04/06 11:38:30;;;;;;;13.68;7.22;;;;;;;;;;5004675;28;20042;-69
2023/04/06 11:40:56;;;;;;;12.45;5.93;;;;;;;;;;5002764;28;20056;-69
2023/04/06 11:43:29;;;;;;;14.98;6.82;;;;;;;;;;5004278;28;20405;-69
2023/04/06 11:46:01;;;;;;;10.40;5.68;;;;;;;;;;5002094;28;20030;-68
2023/04/06 11:48:27;;;;;;;15.50;6.63;;;;;;;;;;5007081;28;20041;-68
2023/04/06 11:51:01;;;;;;;10.50;5.15;;;;;;;;;;5007572;28;20038;-68
2023/04/06 11:53:29;;;;;;;12.85;6.65;;;;;;;;;;5005228;28;20042;-69
2023/04/06 11:55:55;;;;;;;15.98;7.35;;;;;;;;;;5003125;28;20042;-69
2023/04/06 11:58:21;;;;;;;15.18;6.07;;;;;;;;;;5001963;28;20084;-69
2023/04/06 12:00:47;;;;;;;12.70;5.32;;;;;;;;;;5004353;28;20021;-68
2023/04/06 12:03:12;;;;;;;16.73;7.72;;;;;;;;;;5004064;28;20036;-68
2023/04/06 12:05:38;;;;;;;16.05;7.03;;;;;;;;;;5003279;28;20034;-69
2023/04/06 12:08:04;;;;;;;20.17;8.48;;;;;;;;;;5003265;28;20048;-69
2023/04/06 12:10:29;;;;;;;5.13;3.85;;;;;;;;;;4985223;28;20084;-69
2023/04/06 12:12:55;;;;;;;14.00;6.63;;;;;;;;;;4985965;28;20026;-69
2023/04/06 12:15:21;;;;;;;14.70;7.07;;;;;;;;;;4991307;28;20061;-69
2023/04/06 12:17:46;;;;;;;14.52;6.72;;;;;;;;;;5003136;28;20104;-69
2023/04/06 12:20:13;;;;;;;13.30;5.85;;;;;;;;;;5001290;28;20026;-68
2023/04/06 12:22:38;;;;;;;15.45;8.88;;;;;;;;;;5003012;28;20038;-69
2023/04/06 12:25:04;;;;;;;16.65;7.80;;;;;;;;;;5003294;28;20030;-69
2023/04/06 12:27:30;;;;;;;18.98;9.00;;;;;;;;;;5003025;28;20037;-70
2023/04/06 12:29:55;;;;;;;18.50;7.55;;;;;;;;;;4998950;28;20038;-70
2023/04/06 12:32:21;;;;;;;18.88;9.15;;;;;;;;;;4993547;28;20038;-70
2023/04/06 12:34:47;;;;;;;15.82;8.43;;;;;;;;;;5001710;28;20038;-69
2023/04/06 12:37:12;;;;;;;14.90;6.88;;;;;;;;;;5004473;28;20033;-69
2023/04/06 12:39:37;;;;;;;18.05;8.35;;;;;;;;;;5003912;28;20414;-69
2023/04/06 12:42:03;;;;;;;13.40;6.45;;;;;;;;;;5006709;28;20046;-69
2023/04/06 12:44:29;;;;;;;16.65;7.65;;;;;;;;;;5006177;28;20061;-68
2023/04/06 12:46:55;;;;;;;10.43;5.10;;;;;;;;;;5007888;28;20044;-69
2023/04/06 12:49:21;;;;;;;12.90;6.50;;;;;;;;;;5006853;28;20034;-69
2023/04/06 12:51:47;;;;;;;15.57;7.78;;;;;;;;;;5005665;28;20669;-69
2023/04/06 12:54:12;;;;;;;14.48;6.55;;;;;;;;;;5000925;28;20501;-69
2023/04/06 12:56:38;;;;;;;12.02;5.00;;;;;;;;;;5005855;28;20584;-69
2023/04/06 12:59:03;;;;;;;13.25;6.63;;;;;;;;;;5006235;28;20041;-69
2023/04/06 13:01:28;;;;;;;13.48;6.38;;;;;;;;;;5005740;28;20528;-68
2023/04/06 13:03:54;;;;;;;11.38;5.78;;;;;;;;;;5007206;28;20014;-69
2023/04/06 13:06:20;;;;;;;12.18;6.60;;;;;;;;;;5006669;28;20041;-69
2023/04/06 13:08:47;;;;;;;16.85;7.80;;;;;;;;;;5004215;28;20072;-69
2023/04/06 13:11:12;;;;;;;15.65;7.88;;;;;;;;;;5000182;28;20049;-69
2023/04/06 13:13:38;;;;;;;11.43;5.53;;;;;;;;;;5010379;28;20042;-69
2023/04/06 13:16:08;;;;;;;14.57;6.72;;;;;;;;;;5008418;28;20036;-70
2023/04/06 13:18:35;;;;;;;7.68;3.70;;;;;;;;;;5002853;28;20041;-69
2023/04/06 13:21:00;;;;;;;13.50;6.75;;;;;;;;;;5004351;28;20807;-69
2023/04/06 13:23:26;;;;;;;13.63;6.47;;;;;;;;;;5002972;28;20034;-69
2023/04/06 13:26:03;;;;;;;12.48;5.55;;;;;;;;;;4998981;28;20037;-69
2023/04/06 13:28:28;;;;;;;13.98;6.55;;;;;;;;;;5006109;28;20032;-69
2023/04/06 13:30:55;;;;;;;14.13;7.18;;;;;;;;;;4997142;28;20270;-69
2023/04/06 13:33:20;;;;;;;15.52;7.10;;;;;;;;;;5005990;28;20058;-70
2023/04/06 13:35:46;;;;;;;17.90;7.82;;;;;;;;;;5004950;28;20026;-69
2023/04/06 13:38:12;;;;;;;16.75;7.78;;;;;;;;;;5000922;28;20042;-68
2023/04/06 13:40:42;;;;;;;22.80;7.47;;;;;;;;;;4993188;28;20057;-69
2023/04/06 13:43:07;;;;;;;16.58;7.40;;;;;;;;;;5003391;28;20116;-69
2023/04/06 13:45:33;;;;;;;16.10;7.40;;;;;;;;;;5005458;28;20116;-68
2023/04/06 13:47:58;;;;;;;6.75;3.70;;;;;;;;;;5006626;28;20575;-68
2023/04/06 13:50:27;;;;;;;12.52;6.38;;;;;;;;;;5003636;28;20041;-69
2023/04/06 13:52:52;;;;;;;13.27;6.60;;;;;;;;;;4997065;28;20044;-69
2023/04/06 13:55:18;;;;;;;13.55;7.18;;;;;;;;;;5004481;28;20030;-70
2023/04/06 13:57:43;;;;;;;15.65;7.20;;;;;;;;;;5005613;28;20037;-70
2023/04/06 14:00:11;;;;;;;16.67;7.47;;;;;;;;;;5006475;28;20045;-69
2023/04/06 14:02:36;;;;;;;17.48;7.40;;;;;;;;;;5006129;28;20084;-70
2023/04/06 14:05:03;;;;;;;18.85;8.48;;;;;;;;;;5004900;28;20038;-69
2023/04/06 14:07:28;;;;;;;9.35;5.22;;;;;;;;;;5005659;28;20021;-69
2023/04/06 14:09:54;;;;;;;16.30;8.00;;;;;;;;;;5005202;28;20421;-69
2023/04/06 14:12:19;;;;;;;14.38;7.47;;;;;;;;;;5003714;28;20521;-69
2023/04/06 14:14:44;;;;;;;15.70;6.93;;;;;;;;;;5005506;28;20038;-69
2023/04/06 14:17:10;;;;;;;15.73;7.45;;;;;;;;;;4997189;28;20089;-69
2023/04/06 14:19:35;;;;;;;15.80;7.07;;;;;;;;;;5004932;28;20082;-69
2023/04/06 14:22:01;;;;;;;16.27;6.95;;;;;;;;;;5005004;28;20370;-69
2023/04/06 14:24:26;;;;;;;13.80;7.03;;;;;;;;;;5001083;28;20525;-69